createdAt,value
2018-05-14T00:02:06.755Z,8.73
2018-05-14T00:04:34.349Z,7.57
2018-05-14T00:07:01.899Z,6.30
2018-05-14T00:09:29.443Z,7.80
2018-05-14T00:11:57.020Z,9.03
2018-05-14T00:14:24.567Z,8.50
2018-05-14T00:16:52.171Z,10.50
2018-05-14T00:19:19.752Z,7.93
2018-05-14T00:21:47.321Z,7.07
2018-05-14T00:24:14.932Z,7.13
2018-05-14T00:26:42.488Z,6.93
2018-05-14T00:29:10.039Z,8.07
2018-05-14T00:31:37.620Z,7.73
2018-05-14T00:34:05.230Z,9.13
2018-05-14T00:36:32.786Z,6.70
2018-05-14T00:39:00.334Z,7.53
2018-05-14T00:41:27.962Z,8.43
2018-05-14T00:43:55.526Z,6.73
2018-05-14T00:46:23.096Z,6.77
2018-05-14T00:48:50.646Z,7.03
2018-05-14T00:51:18.230Z,5.80
2018-05-14T00:53:45.766Z,6.23
2018-05-14T00:56:13.376Z,9.33
2018-05-14T00:58:40.914Z,9.07
2018-05-14T01:01:08.484Z,7.33
2018-05-14T01:03:36.067Z,6.17
2018-05-14T01:06:04.395Z,6.43
2018-05-14T01:08:31.981Z,7.87
2018-05-14T01:10:59.539Z,7.07
2018-05-14T01:13:27.105Z,6.03
2018-05-14T01:15:54.678Z,5.93
2018-05-14T01:18:23.004Z,6.67
2018-05-14T01:20:50.567Z,6.57
2018-05-14T01:23:18.127Z,6.07
2018-05-14T01:25:45.704Z,9.87
2018-05-14T01:28:13.297Z,10.27
2018-05-14T01:30:41.639Z,9.70
2018-05-14T01:33:09.274Z,8.40
2018-05-14T01:35:36.795Z,7.97
2018-05-14T01:38:04.354Z,6.83
2018-05-14T01:40:31.930Z,7.03
2018-05-14T01:43:00.265Z,7.77
2018-05-14T01:45:27.817Z,9.97
2018-05-14T01:47:55.404Z,9.30
2018-05-14T01:50:22.948Z,8.23
2018-05-14T01:52:50.565Z,6.60
2018-05-14T01:55:18.122Z,8.73
2018-05-14T01:57:46.469Z,8.50
2018-05-14T02:00:14.056Z,7.90
2018-05-14T02:02:42.371Z,8.13
2018-05-14T02:05:09.963Z,10.40
2018-05-14T02:07:37.629Z,9.10
2018-05-14T02:10:05.161Z,8.17
2018-05-14T02:12:32.751Z,9.33
2018-05-14T02:15:00.303Z,6.80
2018-05-14T02:17:27.873Z,7.17
2018-05-14T02:19:55.446Z,9.43
2018-05-14T02:22:23.802Z,7.73
2018-05-14T02:24:51.355Z,8.33
2018-05-14T02:27:18.910Z,13.17
2018-05-14T02:29:46.503Z,7.27
2018-05-14T02:32:14.878Z,8.57
2018-05-14T02:34:42.439Z,9.80
2018-05-14T02:37:10.029Z,7.77
2018-05-14T02:39:37.629Z,8.10
2018-05-14T02:42:05.173Z,10.47
2018-05-14T02:44:32.743Z,10.20
2018-05-14T02:47:00.307Z,9.53
2018-05-14T02:49:27.871Z,8.43
2018-05-14T02:51:55.450Z,10.17
2018-05-14T02:54:23.030Z,8.63
2018-05-14T02:56:51.357Z,9.60
2018-05-14T02:59:18.909Z,7.47
2018-05-14T03:01:46.488Z,10.43
2018-05-14T03:04:14.047Z,7.77
2018-05-14T03:06:41.593Z,8.23
2018-05-14T03:09:09.156Z,11.53
2018-05-14T03:11:36.732Z,8.00
2018-05-14T03:14:04.291Z,10.03
2018-05-14T03:16:31.908Z,7.93
2018-05-14T03:19:00.275Z,8.93
2018-05-14T03:21:28.593Z,9.43
2018-05-14T03:23:56.156Z,8.17
2018-05-14T03:26:23.745Z,7.60
2018-05-14T03:28:51.393Z,7.43
2018-05-14T03:31:18.938Z,9.30
2018-05-14T03:33:46.517Z,7.90
2018-05-14T03:36:14.074Z,8.57
2018-05-14T03:38:41.632Z,8.47
2018-05-14T03:41:09.217Z,8.83
2018-05-14T03:43:36.840Z,8.27
2018-05-14T03:46:04.414Z,7.00
2018-05-14T03:48:31.979Z,13.17
2018-05-14T03:50:59.565Z,8.40
2018-05-14T03:53:27.112Z,12.07
2018-05-14T03:55:54.663Z,21.20
2018-05-14T03:58:33.895Z,21.80
2018-05-14T04:01:12.069Z,7.80
2018-05-14T04:03:52.119Z,8.23
2018-05-14T04:06:31.409Z,10.97
2018-05-14T04:08:58.984Z,11.33
2018-05-14T04:11:26.572Z,10.13
2018-05-14T04:13:54.210Z,9.17
2018-05-14T04:16:21.730Z,9.37
2018-05-14T04:18:49.278Z,18.03
2018-05-14T04:21:16.875Z,15.10
2018-05-14T04:23:44.429Z,10.20
2018-05-14T04:26:12.015Z,9.13
2018-05-14T04:28:40.358Z,6.87
2018-05-14T04:31:07.977Z,8.50
2018-05-14T04:33:35.525Z,8.70
2018-05-14T04:36:03.851Z,15.37
2018-05-14T04:38:31.446Z,9.57
2018-05-14T04:40:58.985Z,12.27
2018-05-14T04:43:26.571Z,13.93
2018-05-14T04:45:54.201Z,10.77
2018-05-14T04:48:21.753Z,12.70
2018-05-14T04:50:49.362Z,9.40
2018-05-14T04:53:17.758Z,10.47
2018-05-14T04:55:45.372Z,11.00
2018-05-14T04:58:12.989Z,9.27
2018-05-14T05:00:40.541Z,9.47
2018-05-14T05:03:08.860Z,13.57
2018-05-14T05:05:36.443Z,11.83
2018-05-14T05:08:04.030Z,15.07
2018-05-14T05:10:32.361Z,9.43
2018-05-14T05:13:00.635Z,12.00
2018-05-14T05:15:28.245Z,9.73
2018-05-14T05:17:55.850Z,10.47
2018-05-14T05:20:24.126Z,11.77
2018-05-14T05:22:51.755Z,7.83
2018-05-14T05:25:19.254Z,12.47
2018-05-14T05:27:46.862Z,8.20
2018-05-14T05:30:14.433Z,10.97
2018-05-14T05:32:42.752Z,8.27
2018-05-14T05:35:10.349Z,16.77
2018-05-14T05:37:37.918Z,12.83
2018-05-14T05:40:06.255Z,11.60
2018-05-14T05:42:33.832Z,11.40
2018-05-14T05:45:01.390Z,10.73
2018-05-14T05:47:28.994Z,7.00
2018-05-14T05:49:57.296Z,7.40
2018-05-14T05:52:24.832Z,7.30
2018-05-14T05:54:53.179Z,5.87
2018-05-14T05:57:20.726Z,7.13
2018-05-14T05:59:48.269Z,5.43
2018-05-14T06:02:15.835Z,5.47
2018-05-14T06:04:43.379Z,8.30
2018-05-14T06:07:10.918Z,6.57
2018-05-14T06:09:38.478Z,6.47
2018-05-14T06:12:06.062Z,5.47
2018-05-14T06:14:33.601Z,7.77
2018-05-14T06:17:01.186Z,7.63
2018-05-14T06:19:28.738Z,7.87
2018-05-14T06:21:56.316Z,7.07
2018-05-14T06:24:23.921Z,8.00
2018-05-14T06:26:52.329Z,6.53
2018-05-14T06:29:19.924Z,4.30
2018-05-14T06:31:47.530Z,6.87
2018-05-14T06:34:15.896Z,4.67
2018-05-14T06:36:44.209Z,3.90
2018-05-14T06:39:11.799Z,3.90
2018-05-14T06:41:39.411Z,7.57
2018-05-14T06:44:07.782Z,4.43
2018-05-14T06:46:36.120Z,3.87
2018-05-14T06:49:03.661Z,7.20
2018-05-14T06:51:31.255Z,2.80
2018-05-14T06:53:58.798Z,4.13
2018-05-14T06:56:26.355Z,3.43
2018-05-14T06:58:53.938Z,3.77
2018-05-14T07:01:21.473Z,4.03
2018-05-14T07:03:49.056Z,3.43
2018-05-14T07:06:16.630Z,4.30
2018-05-14T07:08:44.176Z,3.33
2018-05-14T07:11:12.506Z,3.90
2018-05-14T07:13:40.051Z,3.47
2018-05-14T07:16:08.403Z,2.77
2018-05-14T07:18:35.933Z,4.33
2018-05-14T07:21:04.245Z,4.13
2018-05-14T07:23:31.822Z,3.83
2018-05-14T07:26:00.303Z,4.07
2018-05-14T07:28:27.746Z,8.60
2018-05-14T07:30:55.355Z,4.53
2018-05-14T07:33:22.893Z,7.87
2018-05-14T07:35:51.213Z,5.53
2018-05-14T07:38:18.791Z,4.70
2018-05-14T07:40:46.341Z,4.63
2018-05-14T07:43:13.939Z,6.17
2018-05-14T07:45:42.331Z,5.53
2018-05-14T07:48:10.661Z,3.60
2018-05-14T07:50:38.234Z,3.20
2018-05-14T07:53:05.783Z,3.97
2018-05-14T07:55:34.151Z,5.90
2018-05-14T07:58:01.696Z,4.30
2018-05-14T08:00:29.257Z,3.10
2018-05-14T08:02:57.038Z,6.40
2018-05-14T08:05:24.583Z,4.20
2018-05-14T08:07:52.143Z,5.33
2018-05-14T08:10:19.727Z,3.30
2018-05-14T08:12:47.275Z,4.90
2018-05-14T08:15:15.955Z,4.33
2018-05-14T08:17:44.362Z,4.33
2018-05-14T08:20:11.909Z,3.30
2018-05-14T08:22:39.525Z,4.70
2018-05-14T08:25:07.079Z,4.17
2018-05-14T08:27:34.628Z,4.87
2018-05-14T08:30:02.988Z,3.97
2018-05-14T08:32:30.539Z,5.00
2018-05-14T08:34:58.119Z,4.57
2018-05-14T08:37:25.688Z,4.17
2018-05-14T08:39:53.263Z,3.10
2018-05-14T08:42:21.668Z,4.23
2018-05-14T08:44:49.953Z,5.10
2018-05-14T08:47:17.539Z,3.77
2018-05-14T08:49:45.118Z,5.90
2018-05-14T08:52:12.657Z,3.67
2018-05-14T08:54:40.318Z,3.33
2018-05-14T08:57:07.823Z,5.30
2018-05-14T08:59:36.145Z,6.20
2018-05-14T09:02:03.727Z,5.57
2018-05-14T09:04:31.275Z,5.50
2018-05-14T09:06:58.845Z,5.13
2018-05-14T09:09:27.189Z,3.80
2018-05-14T09:11:54.735Z,5.57
2018-05-14T09:14:22.353Z,4.50
2018-05-14T09:16:50.690Z,4.73
2018-05-14T09:19:18.281Z,5.00
2018-05-14T09:21:45.826Z,5.23
2018-05-14T09:24:13.368Z,3.50
2018-05-14T09:26:40.906Z,5.80
2018-05-14T09:29:08.469Z,4.77
2018-05-14T09:31:36.079Z,4.17
2018-05-14T09:34:03.625Z,5.10
2018-05-14T09:36:31.166Z,4.30
2018-05-14T09:38:58.764Z,7.33
2018-05-14T09:41:26.311Z,3.73
2018-05-14T09:43:53.871Z,4.03
2018-05-14T09:46:21.424Z,3.83
2018-05-14T09:48:49.003Z,3.83
2018-05-14T09:51:16.578Z,4.50
2018-05-14T09:53:44.137Z,5.87
2018-05-14T09:56:11.719Z,4.40
2018-05-14T09:58:40.071Z,4.93
2018-05-14T10:01:07.619Z,5.07
2018-05-14T10:03:35.233Z,7.27
2018-05-14T10:06:02.747Z,4.93
2018-05-14T10:08:30.299Z,4.30
2018-05-14T10:10:57.877Z,6.07
2018-05-14T10:13:25.413Z,3.70
2018-05-14T10:15:52.953Z,5.20
2018-05-14T10:18:20.514Z,6.27
2018-05-14T10:20:48.109Z,3.83
2018-05-14T10:23:15.703Z,4.03
2018-05-14T10:25:44.028Z,6.07
2018-05-14T10:28:11.573Z,4.57
2018-05-14T10:30:39.125Z,4.63
2018-05-14T10:33:06.675Z,3.57
2018-05-14T10:35:34.267Z,3.50
2018-05-14T10:38:01.821Z,3.70
2018-05-14T10:40:29.432Z,3.70
2018-05-14T10:42:57.759Z,4.23
2018-05-14T10:45:25.298Z,5.23
2018-05-14T10:47:53.638Z,4.27
2018-05-14T10:50:21.233Z,5.00
2018-05-14T10:52:48.818Z,5.50
2018-05-14T10:55:16.378Z,4.07
2018-05-14T10:57:43.965Z,6.27
2018-05-14T11:00:11.509Z,3.53
2018-05-14T11:02:39.058Z,3.77
2018-05-14T11:05:06.633Z,4.57
2018-05-14T11:07:34.280Z,4.30
2018-05-14T11:10:01.843Z,5.20
2018-05-14T11:12:30.102Z,3.53
2018-05-14T11:14:57.675Z,5.20
2018-05-14T11:17:25.218Z,5.00
2018-05-14T11:19:52.845Z,5.93
2018-05-14T11:22:20.415Z,6.90
2018-05-14T11:24:48.741Z,5.13
2018-05-14T11:27:16.350Z,3.97
2018-05-14T11:29:43.898Z,3.67
2018-05-14T11:32:11.442Z,4.53
2018-05-14T11:34:39.055Z,4.73
2018-05-14T11:37:06.621Z,4.67
2018-05-14T11:39:34.214Z,7.80
2018-05-14T11:42:01.852Z,4.63
2018-05-14T11:44:29.435Z,5.13
2018-05-14T11:46:56.991Z,6.50
2018-05-14T11:49:24.599Z,5.83
2018-05-14T11:51:52.929Z,4.33
2018-05-14T11:54:21.271Z,5.57
2018-05-14T11:56:48.863Z,5.60
2018-05-14T11:59:16.426Z,5.27
2018-05-14T12:01:44.003Z,4.80
2018-05-14T12:04:11.563Z,4.70
2018-05-14T12:06:39.183Z,5.17
2018-05-14T12:09:06.778Z,6.67
2018-05-14T12:11:34.348Z,4.47
2018-05-14T12:14:01.964Z,3.83
2018-05-14T12:16:30.315Z,5.00
2018-05-14T12:18:57.880Z,5.90
2018-05-14T12:21:26.218Z,4.10
2018-05-14T12:23:53.817Z,4.87
2018-05-14T12:26:22.172Z,5.67
2018-05-14T12:28:49.720Z,5.87
2018-05-14T12:31:17.316Z,4.23
2018-05-14T12:33:44.906Z,3.83
2018-05-14T12:36:13.243Z,5.53
2018-05-14T12:38:40.786Z,6.33
2018-05-14T12:41:08.330Z,8.90
2018-05-14T12:43:35.906Z,4.30
2018-05-14T12:46:03.519Z,4.37
2018-05-14T12:48:31.034Z,5.53
2018-05-14T12:50:58.578Z,4.57
2018-05-14T12:53:26.162Z,6.97
2018-05-14T12:55:53.701Z,7.20
2018-05-14T12:58:21.267Z,5.63
2018-05-14T13:00:48.833Z,4.67
2018-05-14T13:03:16.416Z,4.47
2018-05-14T13:05:44.764Z,6.27
2018-05-14T13:08:12.355Z,5.80
2018-05-14T13:10:39.915Z,5.00
2018-05-14T13:13:07.570Z,6.80
2018-05-14T13:15:35.847Z,3.73
2018-05-14T13:18:03.399Z,4.83
2018-05-14T13:20:31.018Z,6.53
2018-05-14T13:22:58.575Z,5.23
2018-05-14T13:25:26.122Z,4.40
2018-05-14T13:27:54.585Z,4.70
2018-05-14T13:30:22.927Z,4.73
2018-05-14T13:32:50.497Z,4.03
2018-05-14T13:35:18.311Z,4.77
2018-05-14T13:37:45.900Z,6.20
2018-05-14T13:40:13.469Z,6.40
2018-05-14T13:42:41.035Z,7.67
2018-05-14T13:45:08.627Z,4.97
2018-05-14T13:47:36.215Z,3.90
2018-05-14T13:50:04.538Z,3.13
2018-05-14T13:52:32.166Z,4.67
2018-05-14T13:54:59.743Z,3.50
2018-05-14T13:57:27.346Z,5.83
2018-05-14T13:59:54.898Z,3.50
2018-05-14T14:02:22.492Z,3.03
2018-05-14T14:04:50.829Z,3.77
2018-05-14T14:07:18.404Z,3.30
2018-05-14T14:09:45.977Z,4.77
2018-05-14T14:12:13.553Z,8.67
2018-05-14T14:14:41.899Z,9.53
2018-05-14T14:17:09.547Z,5.40
2018-05-14T14:19:37.051Z,3.77
2018-05-14T14:22:05.467Z,8.03
2018-05-14T14:24:33.045Z,3.33
2018-05-14T14:27:00.621Z,3.67
2018-05-14T14:29:28.165Z,5.37
2018-05-14T14:31:55.804Z,3.60
2018-05-14T14:34:23.373Z,3.93
2018-05-14T14:36:52.565Z,3.40
2018-05-14T14:39:20.189Z,4.07
2018-05-14T14:41:48.517Z,2.87
2018-05-14T14:44:16.075Z,4.03
2018-05-14T14:46:43.644Z,3.90
2018-05-14T14:49:11.281Z,4.07
2018-05-14T14:51:38.824Z,2.50
2018-05-14T14:54:06.370Z,3.70
2018-05-14T14:56:34.706Z,2.30
2018-05-14T14:59:02.315Z,2.43
2018-05-14T15:01:30.639Z,3.90
2018-05-14T15:03:58.229Z,2.73
2018-05-14T15:06:25.790Z,3.63
2018-05-14T15:08:53.345Z,2.53
2018-05-14T15:11:20.916Z,3.07
2018-05-14T15:13:48.474Z,4.27
2018-05-14T15:16:16.065Z,2.30
2018-05-14T15:18:44.385Z,2.33
2018-05-14T15:21:11.930Z,6.97
2018-05-14T15:23:39.532Z,4.33
2018-05-14T15:26:07.087Z,2.50
2018-05-14T15:28:34.640Z,3.73
2018-05-14T15:31:02.219Z,3.70
2018-05-14T15:33:29.773Z,3.00
2018-05-14T15:35:57.357Z,2.93
2018-05-14T15:38:24.899Z,2.53
2018-05-14T15:40:52.467Z,3.27
2018-05-14T15:43:20.811Z,6.40
2018-05-14T15:45:48.371Z,3.20
2018-05-14T15:48:15.949Z,3.67
2018-05-14T15:50:43.575Z,3.57
2018-05-14T15:53:11.155Z,4.43
2018-05-14T15:55:38.719Z,2.60
2018-05-14T15:58:06.303Z,5.77
2018-05-14T16:00:33.864Z,4.53
2018-05-14T16:03:01.452Z,3.57
2018-05-14T16:05:29.075Z,5.47
2018-05-14T16:07:57.482Z,3.13
2018-05-14T16:10:25.096Z,3.77
2018-05-14T16:12:52.699Z,5.20
2018-05-14T16:15:20.330Z,2.40
2018-05-14T16:17:48.705Z,2.60
2018-05-14T16:20:17.118Z,2.80
2018-05-14T16:22:44.745Z,2.80
2018-05-14T16:25:12.321Z,3.20
2018-05-14T16:27:40.741Z,2.37
2018-05-14T16:30:08.394Z,2.50
2018-05-14T16:32:36.188Z,2.40
2018-05-14T16:35:03.815Z,4.40
2018-05-14T16:37:31.438Z,4.90
2018-05-14T16:39:59.846Z,3.33
2018-05-14T16:42:27.475Z,3.90
2018-05-14T16:44:55.842Z,3.53
2018-05-14T16:47:23.466Z,3.50
2018-05-14T16:49:51.097Z,3.90
2018-05-14T16:52:18.681Z,3.93
2018-05-14T16:54:46.240Z,5.80
2018-05-14T16:57:13.906Z,4.33
2018-05-14T16:59:41.649Z,5.43
2018-05-14T17:02:09.282Z,6.47
2018-05-14T17:04:37.637Z,10.53
2018-05-14T17:07:05.306Z,5.07
2018-05-14T17:09:32.988Z,5.90
2018-05-14T17:12:01.326Z,4.83
2018-05-14T17:14:28.968Z,9.13
2018-05-14T17:16:56.665Z,6.50
2018-05-14T17:19:24.417Z,6.10
2018-05-14T17:21:52.033Z,5.43
2018-05-14T17:24:20.459Z,6.37
2018-05-14T17:26:48.208Z,5.93
2018-05-14T17:29:15.957Z,5.63
2018-05-14T17:31:43.522Z,5.30
2018-05-14T17:34:11.111Z,4.50
2018-05-14T17:36:38.713Z,7.67
2018-05-14T17:39:06.488Z,5.10
2018-05-14T17:41:34.096Z,4.67
2018-05-14T17:44:01.649Z,5.90
2018-05-14T17:46:29.214Z,9.50
2018-05-14T17:48:57.661Z,5.83
2018-05-14T17:51:25.240Z,5.83
2018-05-14T17:53:52.848Z,6.47
2018-05-14T17:56:20.437Z,5.50
2018-05-14T17:58:48.816Z,6.03
2018-05-14T18:01:16.594Z,4.80
2018-05-14T18:03:44.190Z,5.47
2018-05-14T18:06:12.671Z,4.70
2018-05-14T18:08:41.046Z,4.43
2018-05-14T18:11:09.507Z,4.33
2018-05-14T18:13:37.060Z,3.70
2018-05-14T18:16:04.628Z,4.57
2018-05-14T18:18:32.245Z,5.77
2018-05-14T18:20:59.820Z,3.07
2018-05-14T18:23:27.438Z,4.87
2018-05-14T18:26:09.904Z,4.40
2018-05-14T18:28:40.359Z,5.17
2018-05-14T18:31:24.482Z,3.60
2018-05-14T18:33:53.851Z,3.90
2018-05-14T18:36:21.431Z,4.93
2018-05-14T18:38:48.995Z,5.13
2018-05-14T18:41:16.605Z,5.37
2018-05-14T18:43:44.180Z,5.10
2018-05-14T18:46:11.851Z,3.67
2018-05-14T18:48:39.519Z,3.83
2018-05-14T18:51:07.131Z,9.43
2018-05-14T18:53:34.914Z,5.67
2018-05-14T18:56:02.477Z,5.20
2018-05-14T18:58:30.093Z,4.10
2018-05-14T19:00:57.670Z,4.80
2018-05-14T19:03:26.051Z,6.73
2018-05-14T19:05:54.409Z,5.27
2018-05-14T19:08:21.965Z,6.00
2018-05-14T19:10:55.561Z,6.87
2018-05-14T19:13:23.160Z,6.90
2018-05-14T19:15:56.685Z,6.47
2018-05-14T19:18:24.276Z,5.50
2018-05-14T19:20:51.885Z,5.60
2018-05-14T19:23:25.303Z,4.70
2018-05-14T19:25:52.978Z,6.50
2018-05-14T19:28:26.237Z,6.60
2018-05-14T19:30:53.829Z,5.13
2018-05-14T19:33:27.046Z,7.07
2018-05-14T19:35:57.213Z,5.77
2018-05-14T19:38:24.751Z,4.83
2018-05-14T19:40:52.366Z,4.93
2018-05-14T19:43:20.053Z,4.83
2018-05-14T19:45:47.662Z,4.77
2018-05-14T19:48:15.329Z,7.03
2018-05-14T19:50:43.633Z,4.87
2018-05-14T19:53:11.224Z,6.33
2018-05-14T19:55:39.560Z,6.87
2018-05-14T19:58:07.165Z,9.00
2018-05-14T20:00:35.504Z,7.63
2018-05-14T20:03:03.091Z,6.60
2018-05-14T20:05:31.477Z,7.33
2018-05-14T20:07:59.890Z,7.80
2018-05-14T20:10:27.507Z,5.20
2018-05-14T20:12:55.906Z,5.27
2018-05-14T20:15:24.255Z,7.43
2018-05-14T20:17:51.911Z,5.53
2018-05-14T20:20:19.539Z,9.93
2018-05-14T20:22:47.161Z,5.80
2018-05-14T20:25:15.746Z,6.30
2018-05-14T20:27:44.111Z,8.17
2018-05-14T20:30:12.606Z,6.40
2018-05-14T20:32:41.007Z,7.07
2018-05-14T20:35:08.585Z,6.80
2018-05-14T20:37:36.168Z,6.43
2018-05-14T20:40:03.822Z,7.13
2018-05-14T20:42:31.473Z,6.27
2018-05-14T20:44:59.112Z,6.50
2018-05-14T20:47:26.730Z,6.40
2018-05-14T20:49:55.108Z,8.90
2018-05-14T20:52:23.530Z,6.63
2018-05-14T20:54:51.951Z,7.90
2018-05-14T20:57:19.561Z,8.57
2018-05-14T20:59:47.151Z,7.93
2018-05-14T21:02:14.771Z,8.03
2018-05-14T21:04:42.390Z,6.47
2018-05-14T21:07:10.049Z,7.30
2018-05-14T21:09:37.638Z,8.03
2018-05-14T21:12:06.027Z,6.83
2018-05-14T21:14:33.611Z,7.33
2018-05-14T21:17:01.237Z,7.60
2018-05-14T21:19:30.593Z,6.90
2018-05-14T21:21:58.172Z,7.10
2018-05-14T21:24:25.775Z,8.03
2018-05-14T21:26:53.459Z,7.97
2018-05-14T21:29:21.118Z,9.20
2018-05-14T21:31:48.695Z,8.63
2018-05-14T21:34:16.281Z,7.97
2018-05-14T21:36:44.799Z,8.63
2018-05-14T21:39:12.379Z,7.47
2018-05-14T21:41:39.984Z,9.93
2018-05-14T21:44:08.372Z,10.47
2018-05-14T21:46:36.753Z,8.77
2018-05-14T21:49:05.198Z,7.87
2018-05-14T21:51:32.944Z,8.60
2018-05-14T21:54:00.536Z,7.63
2018-05-14T21:56:28.112Z,8.53
2018-05-14T21:58:56.514Z,8.73
2018-05-14T22:01:24.077Z,8.83
2018-05-14T22:03:51.756Z,8.90
2018-05-14T22:06:19.329Z,9.33
2018-05-14T22:08:46.974Z,10.37
2018-05-14T22:11:14.556Z,10.73
2018-05-14T22:13:42.146Z,10.90
2018-05-14T22:16:10.536Z,9.83
2018-05-14T22:18:39.156Z,11.13
2018-05-14T22:21:06.816Z,9.03
2018-05-14T22:23:34.385Z,9.47
2018-05-14T22:26:01.949Z,9.93
2018-05-14T22:28:29.674Z,11.40
2018-05-14T22:30:57.249Z,9.33
2018-05-14T22:33:24.822Z,8.90
2018-05-14T22:35:52.478Z,8.77
2018-05-14T22:38:20.065Z,9.50
2018-05-14T22:40:48.261Z,10.00
2018-05-14T22:43:15.832Z,9.90
2018-05-14T22:45:44.202Z,10.90
2018-05-14T22:48:12.548Z,9.23
2018-05-14T22:50:40.291Z,9.97
2018-05-14T22:53:07.886Z,9.23
2018-05-14T22:55:35.599Z,9.17
2018-05-14T22:58:03.198Z,9.27
2018-05-14T23:00:31.677Z,9.57
2018-05-14T23:03:00.044Z,9.00
2018-05-14T23:05:27.678Z,8.80
2018-05-14T23:07:55.281Z,9.57
2018-05-14T23:10:23.190Z,10.53
2018-05-14T23:12:50.798Z,10.07
2018-05-14T23:15:18.416Z,9.33
2018-05-14T23:17:46.057Z,9.27
2018-05-14T23:20:14.532Z,8.40
2018-05-14T23:22:42.899Z,8.87
2018-05-14T23:25:10.569Z,12.27
2018-05-14T23:27:38.286Z,8.53
2018-05-14T23:30:05.922Z,8.30
2018-05-14T23:32:33.546Z,8.50
2018-05-14T23:35:01.132Z,9.03
2018-05-14T23:37:28.926Z,8.93
2018-05-14T23:39:56.548Z,9.13
2018-05-14T23:42:24.934Z,8.90
2018-05-14T23:44:53.318Z,9.43
2018-05-14T23:47:20.916Z,8.87
2018-05-14T23:49:48.586Z,10.03
2018-05-14T23:52:16.298Z,9.30
2018-05-14T23:54:45.065Z,9.13
2018-05-14T23:57:12.691Z,9.03
2018-05-14T23:59:40.280Z,8.50
